sensor_id;sensor_type;location;lat;lon;timestamp;P1;durP1;ratioP1;P2;durP2;ratioP2
21352;SDS011;10834;52.268;6.770;2024-03-02T00:01:25;2.87;;;2.47;;
21352;SDS011;10834;52.268;6.770;2024-03-02T00:04:10;2.97;;;2.03;;
21352;SDS011;10834;52.268;6.770;2024-03-02T00:06:54;4.90;;;2.50;;
21352;SDS011;10834;52.268;6.770;2024-03-02T00:09:39;4.80;;;2.97;;
21352;SDS011;10834;52.268;6.770;2024-03-02T00:12:23;4.47;;;2.10;;
21352;SDS011;10834;52.268;6.770;2024-03-02T00:18:31;2.87;;;2.00;;
21352;SDS011;10834;52.268;6.770;2024-03-02T00:21:17;3.13;;;1.87;;
21352;SDS011;10834;52.268;6.770;2024-03-02T00:24:12;4.57;;;1.70;;
21352;SDS011;10834;52.268;6.770;2024-03-02T00:27:31;2.63;;;2.10;;
21352;SDS011;10834;52.268;6.770;2024-03-02T00:33:47;1.57;;;1.47;;
21352;SDS011;10834;52.268;6.770;2024-03-02T00:36:32;3.43;;;1.97;;
21352;SDS011;10834;52.268;6.770;2024-03-02T00:39:17;4.10;;;1.83;;
21352;SDS011;10834;52.268;6.770;2024-03-02T00:42:02;5.67;;;2.10;;
21352;SDS011;10834;52.268;6.770;2024-03-02T00:44:46;1.90;;;1.70;;
21352;SDS011;10834;52.268;6.770;2024-03-02T00:47:31;3.13;;;1.90;;
21352;SDS011;10834;52.268;6.770;2024-03-02T00:50:16;3.77;;;1.80;;
21352;SDS011;10834;52.268;6.770;2024-03-02T00:53:01;3.10;;;2.20;;
21352;SDS011;10834;52.268;6.770;2024-03-02T00:55:46;4.80;;;2.37;;
21352;SDS011;10834;52.268;6.770;2024-03-02T00:58:31;3.93;;;2.10;;
21352;SDS011;10834;52.268;6.770;2024-03-02T01:01:16;5.37;;;1.97;;
21352;SDS011;10834;52.268;6.770;2024-03-02T01:04:00;2.23;;;1.90;;
21352;SDS011;10834;52.268;6.770;2024-03-02T01:06:44;2.60;;;1.90;;
21352;SDS011;10834;52.268;6.770;2024-03-02T01:09:29;4.23;;;2.27;;
21352;SDS011;10834;52.268;6.770;2024-03-02T01:12:13;2.93;;;2.03;;
21352;SDS011;10834;52.268;6.770;2024-03-02T01:14:57;3.23;;;2.03;;
21352;SDS011;10834;52.268;6.770;2024-03-02T01:17:41;2.50;;;2.00;;
21352;SDS011;10834;52.268;6.770;2024-03-02T01:20:25;3.33;;;2.10;;
21352;SDS011;10834;52.268;6.770;2024-03-02T01:23:11;2.40;;;2.17;;
21352;SDS011;10834;52.268;6.770;2024-03-02T01:25:55;2.13;;;1.70;;
21352;SDS011;10834;52.268;6.770;2024-03-02T01:28:40;2.67;;;2.17;;
21352;SDS011;10834;52.268;6.770;2024-03-02T01:31:24;1.73;;;1.53;;
21352;SDS011;10834;52.268;6.770;2024-03-02T01:34:08;2.57;;;2.17;;
21352;SDS011;10834;52.268;6.770;2024-03-02T01:36:52;2.33;;;1.73;;
21352;SDS011;10834;52.268;6.770;2024-03-02T01:39:37;2.23;;;1.80;;
21352;SDS011;10834;52.268;6.770;2024-03-02T01:42:21;3.63;;;2.10;;
21352;SDS011;10834;52.268;6.770;2024-03-02T01:45:05;2.30;;;1.90;;
21352;SDS011;10834;52.268;6.770;2024-03-02T01:47:51;3.20;;;1.97;;
21352;SDS011;10834;52.268;6.770;2024-03-02T01:50:35;4.30;;;2.23;;
21352;SDS011;10834;52.268;6.770;2024-03-02T01:53:20;2.60;;;1.93;;
21352;SDS011;10834;52.268;6.770;2024-03-02T01:56:05;4.00;;;2.03;;
21352;SDS011;10834;52.268;6.770;2024-03-02T01:58:49;3.47;;;2.37;;
21352;SDS011;10834;52.268;6.770;2024-03-02T02:01:33;9.00;;;2.53;;
21352;SDS011;10834;52.268;6.770;2024-03-02T02:04:17;2.77;;;2.17;;
21352;SDS011;10834;52.268;6.770;2024-03-02T02:07:02;6.40;;;2.13;;
21352;SDS011;10834;52.268;6.770;2024-03-02T02:09:46;4.27;;;2.37;;
21352;SDS011;10834;52.268;6.770;2024-03-02T02:12:30;4.17;;;2.30;;
21352;SDS011;10834;52.268;6.770;2024-03-02T02:18:11;2.60;;;2.17;;
21352;SDS011;10834;52.268;6.770;2024-03-02T02:20:55;2.50;;;2.00;;
21352;SDS011;10834;52.268;6.770;2024-03-02T02:23:39;2.23;;;2.03;;
21352;SDS011;10834;52.268;6.770;2024-03-02T02:26:23;3.00;;;2.70;;
21352;SDS011;10834;52.268;6.770;2024-03-02T02:29:07;3.10;;;2.40;;
21352;SDS011;10834;52.268;6.770;2024-03-02T02:31:51;4.80;;;2.40;;
21352;SDS011;10834;52.268;6.770;2024-03-02T02:34:35;4.53;;;2.23;;
21352;SDS011;10834;52.268;6.770;2024-03-02T02:37:19;5.10;;;2.20;;
21352;SDS011;10834;52.268;6.770;2024-03-02T02:40:03;3.57;;;2.17;;
21352;SDS011;10834;52.268;6.770;2024-03-02T02:42:48;4.73;;;2.53;;
21352;SDS011;10834;52.268;6.770;2024-03-02T02:45:33;4.43;;;2.33;;
21352;SDS011;10834;52.268;6.770;2024-03-02T02:48:17;3.67;;;2.07;;
21352;SDS011;10834;52.268;6.770;2024-03-02T02:51:01;7.87;;;2.87;;
21352;SDS011;10834;52.268;6.770;2024-03-02T02:53:46;5.90;;;2.67;;
21352;SDS011;10834;52.268;6.770;2024-03-02T02:56:30;5.57;;;2.50;;
21352;SDS011;10834;52.268;6.770;2024-03-02T02:59:14;4.07;;;2.30;;
21352;SDS011;10834;52.268;6.770;2024-03-02T03:01:58;4.07;;;2.40;;
21352;SDS011;10834;52.268;6.770;2024-03-02T03:04:42;3.17;;;2.33;;
21352;SDS011;10834;52.268;6.770;2024-03-02T03:07:27;4.20;;;2.00;;
21352;SDS011;10834;52.268;6.770;2024-03-02T03:10:11;7.60;;;2.57;;
21352;SDS011;10834;52.268;6.770;2024-03-02T03:12:55;3.23;;;2.40;;
21352;SDS011;10834;52.268;6.770;2024-03-02T03:15:40;5.57;;;1.90;;
21352;SDS011;10834;52.268;6.770;2024-03-02T03:18:24;6.70;;;2.43;;
21352;SDS011;10834;52.268;6.770;2024-03-02T03:21:08;2.47;;;2.00;;
21352;SDS011;10834;52.268;6.770;2024-03-02T03:23:52;3.80;;;2.00;;
21352;SDS011;10834;52.268;6.770;2024-03-02T03:26:36;5.67;;;2.10;;
21352;SDS011;10834;52.268;6.770;2024-03-02T03:29:20;2.43;;;1.93;;
21352;SDS011;10834;52.268;6.770;2024-03-02T03:32:05;2.97;;;2.00;;
21352;SDS011;10834;52.268;6.770;2024-03-02T03:34:50;2.30;;;2.00;;
21352;SDS011;10834;52.268;6.770;2024-03-02T03:37:34;3.00;;;2.00;;
21352;SDS011;10834;52.268;6.770;2024-03-02T03:40:19;4.50;;;1.90;;
21352;SDS011;10834;52.268;6.770;2024-03-02T03:43:04;2.67;;;1.80;;
21352;SDS011;10834;52.268;6.770;2024-03-02T03:45:48;2.27;;;1.87;;
21352;SDS011;10834;52.268;6.770;2024-03-02T03:48:32;5.47;;;2.37;;
21352;SDS011;10834;52.268;6.770;2024-03-02T03:51:16;2.57;;;2.20;;
21352;SDS011;10834;52.268;6.770;2024-03-02T03:54:00;3.93;;;2.07;;
21352;SDS011;10834;52.268;6.770;2024-03-02T03:56:45;2.70;;;1.77;;
21352;SDS011;10834;52.268;6.770;2024-03-02T03:59:29;2.83;;;1.90;;
21352;SDS011;10834;52.268;6.770;2024-03-02T04:02:13;2.03;;;1.70;;
21352;SDS011;10834;52.268;6.770;2024-03-02T04:04:57;4.83;;;1.70;;
21352;SDS011;10834;52.268;6.770;2024-03-02T04:07:41;3.90;;;1.77;;
21352;SDS011;10834;52.268;6.770;2024-03-02T04:10:26;3.07;;;2.10;;
21352;SDS011;10834;52.268;6.770;2024-03-02T04:13:11;2.10;;;1.90;;
21352;SDS011;10834;52.268;6.770;2024-03-02T04:15:55;2.90;;;1.90;;
21352;SDS011;10834;52.268;6.770;2024-03-02T04:18:39;3.10;;;1.67;;
21352;SDS011;10834;52.268;6.770;2024-03-02T04:21:23;2.50;;;1.80;;
21352;SDS011;10834;52.268;6.770;2024-03-02T04:24:07;1.70;;;1.60;;
21352;SDS011;10834;52.268;6.770;2024-03-02T04:26:51;1.80;;;1.50;;
21352;SDS011;10834;52.268;6.770;2024-03-02T04:29:36;2.73;;;1.10;;
21352;SDS011;10834;52.268;6.770;2024-03-02T04:32:20;3.13;;;1.47;;
21352;SDS011;10834;52.268;6.770;2024-03-02T04:35:05;4.10;;;2.00;;
21352;SDS011;10834;52.268;6.770;2024-03-02T04:37:51;1.53;;;1.10;;
21352;SDS011;10834;52.268;6.770;2024-03-02T04:40:35;1.17;;;0.97;;
21352;SDS011;10834;52.268;6.770;2024-03-02T04:43:19;1.80;;;0.90;;
21352;SDS011;10834;52.268;6.770;2024-03-02T04:46:04;1.73;;;1.10;;
21352;SDS011;10834;52.268;6.770;2024-03-02T04:48:50;3.73;;;1.00;;
21352;SDS011;10834;52.268;6.770;2024-03-02T04:51:38;3.90;;;0.90;;
21352;SDS011;10834;52.268;6.770;2024-03-02T04:54:22;1.13;;;0.70;;
21352;SDS011;10834;52.268;6.770;2024-03-02T04:57:07;0.90;;;0.57;;
21352;SDS011;10834;52.268;6.770;2024-03-02T04:59:51;1.53;;;0.80;;
21352;SDS011;10834;52.268;6.770;2024-03-02T05:02:35;1.03;;;0.50;;
21352;SDS011;10834;52.268;6.770;2024-03-02T05:05:19;2.37;;;0.53;;
21352;SDS011;10834;52.268;6.770;2024-03-02T05:08:04;1.00;;;0.67;;
21352;SDS011;10834;52.268;6.770;2024-03-02T05:10:48;2.50;;;0.70;;
21352;SDS011;10834;52.268;6.770;2024-03-02T05:13:32;1.10;;;0.60;;
21352;SDS011;10834;52.268;6.770;2024-03-02T05:16:16;2.07;;;0.70;;
21352;SDS011;10834;52.268;6.770;2024-03-02T05:19:00;1.63;;;0.77;;
21352;SDS011;10834;52.268;6.770;2024-03-02T05:21:44;1.23;;;0.60;;
21352;SDS011;10834;52.268;6.770;2024-03-02T05:24:28;1.13;;;0.50;;
21352;SDS011;10834;52.268;6.770;2024-03-02T05:27:12;2.30;;;1.00;;
21352;SDS011;10834;52.268;6.770;2024-03-02T05:29:56;2.30;;;0.73;;
21352;SDS011;10834;52.268;6.770;2024-03-02T05:32:41;0.97;;;0.83;;
21352;SDS011;10834;52.268;6.770;2024-03-02T05:35:26;1.97;;;0.73;;
21352;SDS011;10834;52.268;6.770;2024-03-02T05:38:10;2.50;;;0.60;;
21352;SDS011;10834;52.268;6.770;2024-03-02T05:40:54;1.37;;;0.57;;
21352;SDS011;10834;52.268;6.770;2024-03-02T05:43:38;1.20;;;0.63;;
21352;SDS011;10834;52.268;6.770;2024-03-02T05:46:22;2.83;;;0.80;;
21352;SDS011;10834;52.268;6.770;2024-03-02T05:49:07;1.20;;;0.80;;
21352;SDS011;10834;52.268;6.770;2024-03-02T05:51:51;0.97;;;0.80;;
21352;SDS011;10834;52.268;6.770;2024-03-02T05:54:35;1.57;;;0.60;;
21352;SDS011;10834;52.268;6.770;2024-03-02T05:57:19;1.63;;;0.77;;
21352;SDS011;10834;52.268;6.770;2024-03-02T06:00:22;0.97;;;0.73;;
21352;SDS011;10834;52.268;6.770;2024-03-02T06:03:06;0.83;;;0.50;;
21352;SDS011;10834;52.268;6.770;2024-03-02T06:05:52;0.77;;;0.77;;
21352;SDS011;10834;52.268;6.770;2024-03-02T06:08:36;3.07;;;0.70;;
21352;SDS011;10834;52.268;6.770;2024-03-02T06:11:21;1.83;;;0.60;;
21352;SDS011;10834;52.268;6.770;2024-03-02T06:14:06;2.00;;;0.77;;
21352;SDS011;10834;52.268;6.770;2024-03-02T06:16:52;1.23;;;0.60;;
21352;SDS011;10834;52.268;6.770;2024-03-02T06:19:36;0.97;;;0.67;;
21352;SDS011;10834;52.268;6.770;2024-03-02T06:22:20;2.40;;;0.80;;
21352;SDS011;10834;52.268;6.770;2024-03-02T06:25:06;1.33;;;0.93;;
21352;SDS011;10834;52.268;6.770;2024-03-02T06:27:51;6.10;;;0.70;;
21352;SDS011;10834;52.268;6.770;2024-03-02T06:30:35;1.80;;;0.80;;
21352;SDS011;10834;52.268;6.770;2024-03-02T06:33:19;2.33;;;0.60;;
21352;SDS011;10834;52.268;6.770;2024-03-02T06:36:03;0.93;;;0.80;;
21352;SDS011;10834;52.268;6.770;2024-03-02T06:38:48;1.50;;;0.80;;
21352;SDS011;10834;52.268;6.770;2024-03-02T06:41:32;2.20;;;0.77;;
21352;SDS011;10834;52.268;6.770;2024-03-02T06:44:17;1.73;;;0.73;;
21352;SDS011;10834;52.268;6.770;2024-03-02T06:47:01;2.23;;;1.27;;
21352;SDS011;10834;52.268;6.770;2024-03-02T06:49:45;2.27;;;1.93;;
21352;SDS011;10834;52.268;6.770;2024-03-02T06:52:29;2.10;;;1.20;;
21352;SDS011;10834;52.268;6.770;2024-03-02T06:55:13;4.07;;;1.70;;
21352;SDS011;10834;52.268;6.770;2024-03-02T06:57:58;2.67;;;1.03;;
21352;SDS011;10834;52.268;6.770;2024-03-02T07:00:42;2.43;;;1.53;;
21352;SDS011;10834;52.268;6.770;2024-03-02T07:03:28;1.80;;;1.30;;
21352;SDS011;10834;52.268;6.770;2024-03-02T07:06:12;2.77;;;0.90;;
21352;SDS011;10834;52.268;6.770;2024-03-02T07:08:56;2.30;;;0.77;;
21352;SDS011;10834;52.268;6.770;2024-03-02T07:11:40;2.47;;;1.10;;
21352;SDS011;10834;52.268;6.770;2024-03-02T07:14:24;1.53;;;0.73;;
21352;SDS011;10834;52.268;6.770;2024-03-02T07:17:29;1.40;;;0.80;;
21352;SDS011;10834;52.268;6.770;2024-03-02T07:20:16;3.27;;;0.70;;
21352;SDS011;10834;52.268;6.770;2024-03-02T07:23:01;2.63;;;0.60;;
21352;SDS011;10834;52.268;6.770;2024-03-02T07:25:45;1.07;;;0.70;;
21352;SDS011;10834;52.268;6.770;2024-03-02T07:28:29;2.87;;;0.70;;
21352;SDS011;10834;52.268;6.770;2024-03-02T07:31:14;1.60;;;1.00;;
21352;SDS011;10834;52.268;6.770;2024-03-02T07:33:59;1.87;;;1.20;;
21352;SDS011;10834;52.268;6.770;2024-03-02T07:36:43;2.47;;;1.20;;
21352;SDS011;10834;52.268;6.770;2024-03-02T07:39:27;1.50;;;1.10;;
21352;SDS011;10834;52.268;6.770;2024-03-02T07:42:11;1.57;;;0.90;;
21352;SDS011;10834;52.268;6.770;2024-03-02T07:44:55;1.90;;;0.90;;
21352;SDS011;10834;52.268;6.770;2024-03-02T07:47:40;3.03;;;1.20;;
21352;SDS011;10834;52.268;6.770;2024-03-02T07:50:24;2.10;;;1.70;;
21352;SDS011;10834;52.268;6.770;2024-03-02T07:53:08;1.40;;;1.23;;
21352;SDS011;10834;52.268;6.770;2024-03-02T07:55:53;6.30;;;1.60;;
21352;SDS011;10834;52.268;6.770;2024-03-02T07:58:37;2.77;;;1.13;;
21352;SDS011;10834;52.268;6.770;2024-03-02T08:01:21;3.83;;;1.20;;
21352;SDS011;10834;52.268;6.770;2024-03-02T08:04:05;3.33;;;1.40;;
21352;SDS011;10834;52.268;6.770;2024-03-02T08:06:50;2.43;;;1.50;;
21352;SDS011;10834;52.268;6.770;2024-03-02T08:09:34;3.67;;;1.50;;
21352;SDS011;10834;52.268;6.770;2024-03-02T08:12:19;3.23;;;1.93;;
21352;SDS011;10834;52.268;6.770;2024-03-02T08:15:05;2.07;;;1.77;;
21352;SDS011;10834;52.268;6.770;2024-03-02T08:17:50;3.80;;;1.63;;
21352;SDS011;10834;52.268;6.770;2024-03-02T08:20:34;2.93;;;1.40;;
21352;SDS011;10834;52.268;6.770;2024-03-02T08:23:19;2.00;;;1.33;;
21352;SDS011;10834;52.268;6.770;2024-03-02T08:26:03;6.13;;;1.80;;
21352;SDS011;10834;52.268;6.770;2024-03-02T08:28:48;2.03;;;1.23;;
21352;SDS011;10834;52.268;6.770;2024-03-02T08:31:32;2.10;;;1.40;;
21352;SDS011;10834;52.268;6.770;2024-03-02T08:34:16;2.40;;;1.77;;
21352;SDS011;10834;52.268;6.770;2024-03-02T08:37:01;4.13;;;2.10;;
21352;SDS011;10834;52.268;6.770;2024-03-02T08:39:46;2.70;;;1.87;;
21352;SDS011;10834;52.268;6.770;2024-03-02T08:42:30;3.57;;;1.93;;
21352;SDS011;10834;52.268;6.770;2024-03-02T08:45:14;4.20;;;1.60;;
21352;SDS011;10834;52.268;6.770;2024-03-02T08:47:58;2.60;;;1.77;;
21352;SDS011;10834;52.268;6.770;2024-03-02T08:50:42;2.30;;;1.63;;
21352;SDS011;10834;52.268;6.770;2024-03-02T08:53:27;3.47;;;2.00;;
21352;SDS011;10834;52.268;6.770;2024-03-02T08:56:11;4.82;;;1.60;;
21352;SDS011;10834;52.268;6.770;2024-03-02T08:58:56;2.53;;;2.05;;
21352;SDS011;10834;52.268;6.770;2024-03-02T09:01:41;2.72;;;1.75;;
21352;SDS011;10834;52.268;6.770;2024-03-02T09:04:25;2.67;;;2.05;;
21352;SDS011;10834;52.268;6.770;2024-03-02T09:07:10;3.25;;;1.77;;
21352;SDS011;10834;52.268;6.770;2024-03-02T09:09:54;3.60;;;1.95;;
21352;SDS011;10834;52.268;6.770;2024-03-02T09:12:37;3.20;;;2.15;;
21352;SDS011;10834;52.268;6.770;2024-03-02T09:15:23;2.45;;;1.80;;
21352;SDS011;10834;52.268;6.770;2024-03-02T09:18:07;4.28;;;1.50;;
21352;SDS011;10834;52.268;6.770;2024-03-02T09:20:51;3.70;;;1.52;;
21352;SDS011;10834;52.268;6.770;2024-03-02T09:23:35;3.80;;;1.80;;
21352;SDS011;10834;52.268;6.770;2024-03-02T09:26:19;3.08;;;1.65;;
21352;SDS011;10834;52.268;6.770;2024-03-02T09:29:04;0.90;;;0.90;;
21352;SDS011;10834;52.268;6.770;2024-03-02T09:31:48;2.33;;;1.20;;
21352;SDS011;10834;52.268;6.770;2024-03-02T09:34:34;3.72;;;1.05;;
21352;SDS011;10834;52.268;6.770;2024-03-02T09:37:18;1.35;;;1.15;;
21352;SDS011;10834;52.268;6.770;2024-03-02T09:40:02;3.33;;;1.33;;
21352;SDS011;10834;52.268;6.770;2024-03-02T09:42:47;2.15;;;1.27;;
21352;SDS011;10834;52.268;6.770;2024-03-02T09:45:36;1.98;;;1.23;;
21352;SDS011;10834;52.268;6.770;2024-03-02T09:48:21;1.30;;;1.10;;
21352;SDS011;10834;52.268;6.770;2024-03-02T09:51:05;3.38;;;1.73;;
21352;SDS011;10834;52.268;6.770;2024-03-02T09:53:49;2.25;;;1.40;;
21352;SDS011;10834;52.268;6.770;2024-03-02T09:56:34;2.60;;;1.63;;
21352;SDS011;10834;52.268;6.770;2024-03-02T09:59:18;1.80;;;1.27;;
21352;SDS011;10834;52.268;6.770;2024-03-02T10:02:03;2.47;;;1.65;;
21352;SDS011;10834;52.268;6.770;2024-03-02T10:04:50;1.95;;;1.45;;
21352;SDS011;10834;52.268;6.770;2024-03-02T10:07:34;3.92;;;1.60;;
21352;SDS011;10834;52.268;6.770;2024-03-02T10:10:18;3.03;;;1.90;;
21352;SDS011;10834;52.268;6.770;2024-03-02T10:13:03;2.58;;;1.63;;
21352;SDS011;10834;52.268;6.770;2024-03-02T10:15:51;3.63;;;2.20;;
21352;SDS011;10834;52.268;6.770;2024-03-02T10:18:35;2.33;;;1.38;;
21352;SDS011;10834;52.268;6.770;2024-03-02T10:21:20;3.58;;;1.30;;
21352;SDS011;10834;52.268;6.770;2024-03-02T10:24:07;1.35;;;0.98;;
21352;SDS011;10834;52.268;6.770;2024-03-02T10:26:51;5.20;;;1.30;;
21352;SDS011;10834;52.268;6.770;2024-03-02T10:29:37;1.33;;;1.10;;
21352;SDS011;10834;52.268;6.770;2024-03-02T10:32:23;1.97;;;1.20;;
21352;SDS011;10834;52.268;6.770;2024-03-02T10:35:07;2.83;;;0.90;;
21352;SDS011;10834;52.268;6.770;2024-03-02T10:37:52;1.67;;;0.80;;
21352;SDS011;10834;52.268;6.770;2024-03-02T10:40:37;2.50;;;1.10;;
21352;SDS011;10834;52.268;6.770;2024-03-02T10:43:21;0.87;;;0.80;;
21352;SDS011;10834;52.268;6.770;2024-03-02T10:46:05;1.30;;;0.93;;
21352;SDS011;10834;52.268;6.770;2024-03-02T10:48:49;1.23;;;1.00;;
21352;SDS011;10834;52.268;6.770;2024-03-02T10:51:33;3.28;;;0.98;;
21352;SDS011;10834;52.268;6.770;2024-03-02T10:54:20;2.13;;;1.27;;
21352;SDS011;10834;52.268;6.770;2024-03-02T10:57:10;1.30;;;1.10;;
21352;SDS011;10834;52.268;6.770;2024-03-02T11:00:00;1.20;;;1.10;;
21352;SDS011;10834;52.268;6.770;2024-03-02T11:02:48;1.90;;;1.13;;
21352;SDS011;10834;52.268;6.770;2024-03-02T11:05:41;2.13;;;1.37;;
21352;SDS011;10834;52.268;6.770;2024-03-02T11:08:28;2.53;;;1.07;;
21352;SDS011;10834;52.268;6.770;2024-03-02T11:11:15;2.53;;;1.27;;
21352;SDS011;10834;52.268;6.770;2024-03-02T11:14:02;2.47;;;1.27;;
21352;SDS011;10834;52.268;6.770;2024-03-02T11:16:52;2.10;;;1.40;;
21352;SDS011;10834;52.268;6.770;2024-03-02T11:19:40;1.80;;;1.47;;
21352;SDS011;10834;52.268;6.770;2024-03-02T11:22:26;2.43;;;1.53;;
21352;SDS011;10834;52.268;6.770;2024-03-02T11:25:23;2.07;;;1.20;;
21352;SDS011;10834;52.268;6.770;2024-03-02T11:28:09;4.90;;;1.30;;
21352;SDS011;10834;52.268;6.770;2024-03-02T11:30:53;3.80;;;1.70;;
21352;SDS011;10834;52.268;6.770;2024-03-02T11:33:37;1.90;;;1.53;;
21352;SDS011;10834;52.268;6.770;2024-03-02T11:36:21;3.20;;;1.53;;
21352;SDS011;10834;52.268;6.770;2024-03-02T11:39:05;3.77;;;1.90;;
21352;SDS011;10834;52.268;6.770;2024-03-02T11:41:49;3.47;;;1.60;;
21352;SDS011;10834;52.268;6.770;2024-03-02T11:44:34;3.50;;;2.30;;
21352;SDS011;10834;52.268;6.770;2024-03-02T11:47:19;1.50;;;1.40;;
21352;SDS011;10834;52.268;6.770;2024-03-02T11:50:03;2.27;;;2.07;;
21352;SDS011;10834;52.268;6.770;2024-03-02T11:52:50;2.00;;;1.80;;
21352;SDS011;10834;52.268;6.770;2024-03-02T11:55:35;1.97;;;1.73;;
21352;SDS011;10834;52.268;6.770;2024-03-02T11:58:20;2.67;;;1.70;;
21352;SDS011;10834;52.268;6.770;2024-03-02T12:01:07;2.77;;;1.93;;
21352;SDS011;10834;52.268;6.770;2024-03-02T12:03:51;2.83;;;1.97;;
21352;SDS011;10834;52.268;6.770;2024-03-02T12:06:38;4.10;;;2.20;;
21352;SDS011;10834;52.268;6.770;2024-03-02T12:09:23;2.40;;;2.10;;
21352;SDS011;10834;52.268;6.770;2024-03-02T12:14:52;3.33;;;1.80;;
21352;SDS011;10834;52.268;6.770;2024-03-02T12:17:38;2.20;;;2.07;;
21352;SDS011;10834;52.268;6.770;2024-03-02T12:20:23;2.53;;;2.03;;
21352;SDS011;10834;52.268;6.770;2024-03-02T12:23:08;2.30;;;2.00;;
21352;SDS011;10834;52.268;6.770;2024-03-02T12:25:53;5.83;;;2.23;;
21352;SDS011;10834;52.268;6.770;2024-03-02T12:28:38;3.60;;;2.03;;
21352;SDS011;10834;52.268;6.770;2024-03-02T12:31:22;2.20;;;1.73;;
21352;SDS011;10834;52.268;6.770;2024-03-02T12:34:07;2.53;;;1.70;;
21352;SDS011;10834;52.268;6.770;2024-03-02T12:36:52;1.70;;;1.50;;
21352;SDS011;10834;52.268;6.770;2024-03-02T12:39:36;3.73;;;1.67;;
21352;SDS011;10834;52.268;6.770;2024-03-02T12:42:20;3.43;;;1.50;;
21352;SDS011;10834;52.268;6.770;2024-03-02T12:45:05;2.13;;;2.00;;
21352;SDS011;10834;52.268;6.770;2024-03-02T12:47:50;4.90;;;1.50;;
21352;SDS011;10834;52.268;6.770;2024-03-02T12:50:37;1.77;;;1.40;;
21352;SDS011;10834;52.268;6.770;2024-03-02T12:53:22;1.50;;;1.40;;
21352;SDS011;10834;52.268;6.770;2024-03-02T12:56:07;1.70;;;1.30;;
21352;SDS011;10834;52.268;6.770;2024-03-02T12:58:55;2.27;;;1.13;;
21352;SDS011;10834;52.268;6.770;2024-03-02T13:01:49;1.40;;;1.00;;
21352;SDS011;10834;52.268;6.770;2024-03-02T13:04:34;2.30;;;1.20;;
21352;SDS011;10834;52.268;6.770;2024-03-02T13:07:19;4.73;;;1.40;;
21352;SDS011;10834;52.268;6.770;2024-03-02T13:10:06;2.33;;;1.73;;
21352;SDS011;10834;52.268;6.770;2024-03-02T13:12:54;2.23;;;1.13;;
21352;SDS011;10834;52.268;6.770;2024-03-02T13:15:40;3.23;;;1.33;;
21352;SDS011;10834;52.268;6.770;2024-03-02T13:18:26;1.93;;;1.30;;
21352;SDS011;10834;52.268;6.770;2024-03-02T13:21:12;2.93;;;1.17;;
21352;SDS011;10834;52.268;6.770;2024-03-02T13:23:56;2.63;;;1.23;;
21352;SDS011;10834;52.268;6.770;2024-03-02T13:26:40;2.87;;;1.17;;
21352;SDS011;10834;52.268;6.770;2024-03-02T13:29:24;1.60;;;1.00;;
21352;SDS011;10834;52.268;6.770;2024-03-02T13:32:08;1.70;;;1.07;;
21352;SDS011;10834;52.268;6.770;2024-03-02T13:34:53;5.27;;;1.40;;
21352;SDS011;10834;52.268;6.770;2024-03-02T13:37:37;1.73;;;1.10;;
21352;SDS011;10834;52.268;6.770;2024-03-02T13:40:22;0.87;;;0.83;;
21352;SDS011;10834;52.268;6.770;2024-03-02T13:43:07;1.77;;;0.77;;
21352;SDS011;10834;52.268;6.770;2024-03-02T13:45:52;1.13;;;0.90;;
21352;SDS011;10834;52.268;6.770;2024-03-02T13:48:37;3.03;;;0.80;;
21352;SDS011;10834;52.268;6.770;2024-03-02T13:51:21;2.07;;;1.10;;
21352;SDS011;10834;52.268;6.770;2024-03-02T13:54:05;1.53;;;0.80;;
21352;SDS011;10834;52.268;6.770;2024-03-02T13:56:49;1.40;;;0.80;;
21352;SDS011;10834;52.268;6.770;2024-03-02T13:59:34;0.97;;;0.70;;
21352;SDS011;10834;52.268;6.770;2024-03-02T14:02:18;1.93;;;0.90;;
21352;SDS011;10834;52.268;6.770;2024-03-02T14:05:03;1.60;;;0.90;;
21352;SDS011;10834;52.268;6.770;2024-03-02T14:07:47;1.57;;;1.00;;
21352;SDS011;10834;52.268;6.770;2024-03-02T14:10:32;2.57;;;1.43;;
21352;SDS011;10834;52.268;6.770;2024-03-02T14:13:16;2.10;;;1.00;;
21352;SDS011;10834;52.268;6.770;2024-03-02T14:16:00;2.30;;;1.30;;
21352;SDS011;10834;52.268;6.770;2024-03-02T14:18:44;3.47;;;1.17;;
21352;SDS011;10834;52.268;6.770;2024-03-02T14:21:28;3.47;;;1.43;;
21352;SDS011;10834;52.268;6.770;2024-03-02T14:24:13;1.27;;;0.90;;
21352;SDS011;10834;52.268;6.770;2024-03-02T14:26:57;2.87;;;1.10;;
21352;SDS011;10834;52.268;6.770;2024-03-02T14:29:45;4.90;;;1.10;;
21352;SDS011;10834;52.268;6.770;2024-03-02T14:32:29;1.97;;;1.20;;
21352;SDS011;10834;52.268;6.770;2024-03-02T14:35:13;1.00;;;0.80;;
21352;SDS011;10834;52.268;6.770;2024-03-02T14:37:59;1.03;;;0.90;;
21352;SDS011;10834;52.268;6.770;2024-03-02T14:40:43;2.60;;;1.10;;
21352;SDS011;10834;52.268;6.770;2024-03-02T14:43:27;1.53;;;0.93;;
21352;SDS011;10834;52.268;6.770;2024-03-02T14:46:11;1.73;;;0.87;;
21352;SDS011;10834;52.268;6.770;2024-03-02T14:48:56;2.10;;;1.10;;
21352;SDS011;10834;52.268;6.770;2024-03-02T14:51:40;3.37;;;1.40;;
21352;SDS011;10834;52.268;6.770;2024-03-02T14:54:24;1.07;;;0.60;;
21352;SDS011;10834;52.268;6.770;2024-03-02T14:57:08;1.10;;;0.77;;
21352;SDS011;10834;52.268;6.770;2024-03-02T14:59:53;0.93;;;0.90;;
21352;SDS011;10834;52.268;6.770;2024-03-02T15:02:38;3.27;;;1.10;;
21352;SDS011;10834;52.268;6.770;2024-03-02T15:05:22;2.27;;;1.33;;
21352;SDS011;10834;52.268;6.770;2024-03-02T15:08:10;2.10;;;0.87;;
21352;SDS011;10834;52.268;6.770;2024-03-02T15:10:54;1.30;;;0.80;;
21352;SDS011;10834;52.268;6.770;2024-03-02T15:13:43;1.97;;;1.00;;
21352;SDS011;10834;52.268;6.770;2024-03-02T15:16:27;2.70;;;0.90;;
21352;SDS011;10834;52.268;6.770;2024-03-02T15:19:12;1.63;;;0.90;;
21352;SDS011;10834;52.268;6.770;2024-03-02T15:21:56;2.03;;;0.97;;
21352;SDS011;10834;52.268;6.770;2024-03-02T15:24:40;2.17;;;1.30;;
21352;SDS011;10834;52.268;6.770;2024-03-02T15:27:25;1.93;;;1.30;;
21352;SDS011;10834;52.268;6.770;2024-03-02T15:30:11;1.40;;;0.77;;
21352;SDS011;10834;52.268;6.770;2024-03-02T15:32:55;1.00;;;0.90;;
21352;SDS011;10834;52.268;6.770;2024-03-02T15:35:39;3.50;;;0.93;;
21352;SDS011;10834;52.268;6.770;2024-03-02T15:38:24;1.87;;;1.00;;
21352;SDS011;10834;52.268;6.770;2024-03-02T15:41:08;1.00;;;0.90;;
21352;SDS011;10834;52.268;6.770;2024-03-02T15:43:53;2.50;;;1.30;;
21352;SDS011;10834;52.268;6.770;2024-03-02T15:46:37;1.20;;;1.03;;
21352;SDS011;10834;52.268;6.770;2024-03-02T15:49:21;2.47;;;1.67;;
21352;SDS011;10834;52.268;6.770;2024-03-02T15:52:05;1.40;;;0.93;;
21352;SDS011;10834;52.268;6.770;2024-03-02T15:54:49;1.93;;;0.93;;
21352;SDS011;10834;52.268;6.770;2024-03-02T15:57:33;3.83;;;0.90;;
21352;SDS011;10834;52.268;6.770;2024-03-02T16:00:18;1.60;;;1.20;;
21352;SDS011;10834;52.268;6.770;2024-03-02T16:03:03;3.20;;;1.17;;
21352;SDS011;10834;52.268;6.770;2024-03-02T16:05:47;4.23;;;2.20;;
21352;SDS011;10834;52.268;6.770;2024-03-02T16:08:32;2.93;;;1.80;;
21352;SDS011;10834;52.268;6.770;2024-03-02T16:11:16;1.87;;;1.23;;
21352;SDS011;10834;52.268;6.770;2024-03-02T16:14:01;2.50;;;1.27;;
21352;SDS011;10834;52.268;6.770;2024-03-02T16:16:45;1.93;;;1.30;;
21352;SDS011;10834;52.268;6.770;2024-03-02T16:19:29;3.57;;;1.20;;
21352;SDS011;10834;52.268;6.770;2024-03-02T16:22:13;1.60;;;1.33;;
21352;SDS011;10834;52.268;6.770;2024-03-02T16:24:57;1.50;;;1.30;;
21352;SDS011;10834;52.268;6.770;2024-03-02T16:27:42;2.43;;;1.80;;
21352;SDS011;10834;52.268;6.770;2024-03-02T16:30:26;3.70;;;1.13;;
21352;SDS011;10834;52.268;6.770;2024-03-02T16:33:10;1.80;;;1.40;;
21352;SDS011;10834;52.268;6.770;2024-03-02T16:35:54;1.90;;;1.60;;
21352;SDS011;10834;52.268;6.770;2024-03-02T16:38:38;3.30;;;1.87;;
21352;SDS011;10834;52.268;6.770;2024-03-02T16:41:24;4.97;;;2.40;;
21352;SDS011;10834;52.268;6.770;2024-03-02T16:44:13;4.13;;;2.53;;
21352;SDS011;10834;52.268;6.770;2024-03-02T16:46:57;4.67;;;1.90;;